createdAt,value
2022-09-24T00:01:42.888Z,12.05
2022-09-24T00:04:12.385Z,11.52
2022-09-24T00:06:43.152Z,11.40
2022-09-24T00:09:11.761Z,12.27
2022-09-24T00:11:38.868Z,12.45
2022-09-24T00:14:07.079Z,12.10
2022-09-24T00:16:36.831Z,11.45
2022-09-24T00:19:05.144Z,11.70
2022-09-24T00:21:34.120Z,11.93
2022-09-24T00:24:03.820Z,11.32
2022-09-24T00:26:49.148Z,11.88
2022-09-24T00:29:21.218Z,12.50
2022-09-24T00:31:48.728Z,13.13
2022-09-24T00:34:15.674Z,12.30
2022-09-24T00:36:42.456Z,12.38
2022-09-24T00:39:09.285Z,12.30
2022-09-24T00:41:37.893Z,12.07
2022-09-24T00:44:40.773Z,12.65
2022-09-24T00:47:27.141Z,12.35
2022-09-24T00:50:05.651Z,12.85
2022-09-24T00:52:34.666Z,12.43
2022-09-24T00:55:01.431Z,12.05
2022-09-24T00:57:28.597Z,12.95
2022-09-24T00:59:56.408Z,13.02
2022-09-24T01:02:24.251Z,12.40
2022-09-24T01:04:54.352Z,13.23
2022-09-24T01:07:23.156Z,12.73
2022-09-24T01:09:49.935Z,13.70
2022-09-24T01:12:28.348Z,12.73
2022-09-24T01:14:58.565Z,12.40
2022-09-24T01:17:54.143Z,13.35
2022-09-24T01:20:58.353Z,13.38
2022-09-24T01:24:00.317Z,13.50
2022-09-24T01:26:48.462Z,13.00
2022-09-24T01:29:32.164Z,13.02
2022-09-24T01:32:06.631Z,14.20
2022-09-24T01:34:46.943Z,13.00
2022-09-24T01:37:16.495Z,11.93
2022-09-24T01:39:45.382Z,12.07
2022-09-24T01:42:13.572Z,12.65
2022-09-24T01:44:42.486Z,12.82
2022-09-24T01:47:13.132Z,12.65
2022-09-24T01:49:39.949Z,12.05
2022-09-24T01:52:10.367Z,11.07
2022-09-24T01:54:43.234Z,12.07
2022-09-24T01:57:17.469Z,12.20
2022-09-24T01:59:57.693Z,12.48
2022-09-24T02:02:28.995Z,12.20
2022-09-24T02:07:32.035Z,12.07
2022-09-24T02:09:58.924Z,11.95
2022-09-24T02:12:29.851Z,12.07
2022-09-24T02:15:09.092Z,11.55
2022-09-24T02:17:38.286Z,13.07
2022-09-24T02:20:09.578Z,13.25
2022-09-24T02:25:05.186Z,14.77
2022-09-24T02:27:32.013Z,14.80
2022-09-24T02:29:59.494Z,15.90
2022-09-24T02:32:28.662Z,14.10
2022-09-24T02:34:59.464Z,16.63
2022-09-24T02:37:26.241Z,15.45
2022-09-24T02:39:53.079Z,15.48
2022-09-24T02:42:20.779Z,14.65
2022-09-24T02:44:47.661Z,15.80
2022-09-24T02:47:14.686Z,15.27
2022-09-24T02:49:41.459Z,16.00
2022-09-24T02:52:08.282Z,16.35
2022-09-24T02:54:35.047Z,15.98
2022-09-24T02:57:01.906Z,16.42
2022-09-24T02:59:28.889Z,15.45
2022-09-24T03:02:02.289Z,15.80
2022-09-24T03:04:30.752Z,15.75
2022-09-24T03:06:57.545Z,15.40
2022-09-24T03:09:24.359Z,16.80
2022-09-24T03:11:51.082Z,16.83
2022-09-24T03:14:18.042Z,16.15
2022-09-24T03:16:44.889Z,16.58
2022-09-24T03:19:11.688Z,16.92
2022-09-24T03:21:38.550Z,16.15
2022-09-24T03:24:05.506Z,16.60
2022-09-24T03:26:33.063Z,18.20
2022-09-24T03:28:59.869Z,18.35
2022-09-24T03:31:26.716Z,17.67
2022-09-24T03:33:53.512Z,18.55
2022-09-24T03:36:24.793Z,19.33
2022-09-24T03:41:24.285Z,16.98
2022-09-24T03:43:51.396Z,19.40
2022-09-24T03:46:19.207Z,18.58
2022-09-24T03:48:47.402Z,17.88
2022-09-24T03:51:19.353Z,18.30
2022-09-24T03:53:47.292Z,17.52
2022-09-24T03:56:14.621Z,19.15
2022-09-24T03:58:41.871Z,19.42
2022-09-24T04:01:09.718Z,20.98
2022-09-24T04:03:36.531Z,18.83
2022-09-24T04:06:04.448Z,18.60
2022-09-24T04:08:31.750Z,18.30
2022-09-24T04:10:58.852Z,19.40
2022-09-24T04:13:25.824Z,18.13
2022-09-24T04:15:53.750Z,18.95
2022-09-24T04:18:21.086Z,20.75
2022-09-24T04:20:48.094Z,19.75
2022-09-24T04:23:15.377Z,19.23
2022-09-24T04:25:42.163Z,19.60
2022-09-24T04:28:10.467Z,20.90
2022-09-24T04:30:38.277Z,20.35
2022-09-24T04:33:06.131Z,20.85
2022-09-24T04:35:35.959Z,20.33
2022-09-24T04:38:04.362Z,21.25
2022-09-24T04:40:31.723Z,20.58
2022-09-24T04:42:59.272Z,21.90
2022-09-24T04:45:26.863Z,22.05
2022-09-24T04:47:58.080Z,21.85
2022-09-24T04:50:29.075Z,22.33
2022-09-24T04:52:55.972Z,22.00
2022-09-24T04:55:24.013Z,21.48
2022-09-24T04:57:51.320Z,21.70
2022-09-24T05:00:20.069Z,22.25
2022-09-24T05:02:47.708Z,22.42
2022-09-24T05:05:14.854Z,22.15
2022-09-24T05:07:42.746Z,23.48
2022-09-24T05:10:09.738Z,22.63
2022-09-24T05:12:36.682Z,22.42
2022-09-24T05:15:04.710Z,21.60
2022-09-24T05:17:31.601Z,22.17
2022-09-24T05:20:06.654Z,22.20
2022-09-24T05:22:33.477Z,23.38
2022-09-24T05:25:00.147Z,21.98
2022-09-24T05:27:26.760Z,21.75
2022-09-24T05:29:54.043Z,22.08
2022-09-24T05:32:20.914Z,21.02
2022-09-24T05:34:48.152Z,21.90
2022-09-24T05:37:15.552Z,21.58
2022-09-24T05:39:42.637Z,22.35
2022-09-24T05:42:10.915Z,21.83
2022-09-24T05:44:38.336Z,21.80
2022-09-24T05:47:05.256Z,22.10
2022-09-24T05:49:32.176Z,21.77
2022-09-24T05:51:59.081Z,22.02
2022-09-24T05:54:25.966Z,22.85
2022-09-24T05:56:53.025Z,22.67
2022-09-24T05:59:19.965Z,22.65
2022-09-24T06:01:46.886Z,21.63
2022-09-24T06:04:13.939Z,22.52
2022-09-24T06:06:40.751Z,21.58
2022-09-24T06:09:10.042Z,22.77
2022-09-24T06:11:40.354Z,22.48
2022-09-24T06:14:09.099Z,23.33
2022-09-24T06:16:36.135Z,23.08
2022-09-24T06:19:03.242Z,23.58
2022-09-24T06:21:30.054Z,23.98
2022-09-24T06:23:56.948Z,22.13
2022-09-24T06:26:26.121Z,23.38
2022-09-24T06:28:52.944Z,22.10
2022-09-24T06:31:20.345Z,21.10
2022-09-24T06:33:47.157Z,22.02
2022-09-24T06:36:14.258Z,21.75
2022-09-24T06:38:41.286Z,22.25
2022-09-24T06:41:08.332Z,23.30
2022-09-24T06:43:35.233Z,21.23
2022-09-24T06:46:03.295Z,21.60
2022-09-24T06:48:31.303Z,21.30
2022-09-24T06:50:58.164Z,22.38
2022-09-24T06:53:25.283Z,21.15
2022-09-24T06:55:53.413Z,21.80
2022-09-24T06:58:21.100Z,21.88
2022-09-24T07:01:14.062Z,22.15
2022-09-24T07:03:40.924Z,22.23
2022-09-24T07:06:07.901Z,21.38
2022-09-24T07:08:35.000Z,22.00
2022-09-24T07:11:02.278Z,20.10
2022-09-24T07:13:29.075Z,20.27
2022-09-24T07:15:56.041Z,21.27
2022-09-24T07:18:23.136Z,20.85
2022-09-24T07:20:54.319Z,20.58
2022-09-24T07:23:21.737Z,20.33
2022-09-24T07:25:49.269Z,19.70
2022-09-24T07:28:16.350Z,20.98
2022-09-24T07:30:43.202Z,19.52
2022-09-24T07:33:10.077Z,20.48
2022-09-24T07:35:40.143Z,20.25
2022-09-24T07:38:16.731Z,20.25
2022-09-24T07:40:44.903Z,19.63
2022-09-24T07:43:14.037Z,19.70
2022-09-24T07:45:42.373Z,20.73
2022-09-24T07:48:12.575Z,19.45
2022-09-24T07:50:40.374Z,20.30
2022-09-24T07:53:07.518Z,20.58
2022-09-24T07:55:39.561Z,19.73
2022-09-24T07:58:08.924Z,20.77
2022-09-24T08:00:35.675Z,19.75
2022-09-24T08:03:02.958Z,19.50
2022-09-24T08:05:29.801Z,19.75
2022-09-24T08:07:57.697Z,20.95
2022-09-24T08:10:26.477Z,19.30
2022-09-24T08:12:53.861Z,19.58
2022-09-24T08:15:22.682Z,19.75
2022-09-24T08:17:49.691Z,19.70
2022-09-24T08:20:16.494Z,19.25
2022-09-24T08:22:43.260Z,18.58
2022-09-24T08:25:12.623Z,19.50
2022-09-24T08:27:39.398Z,18.80
2022-09-24T08:30:06.950Z,19.40
2022-09-24T08:32:33.685Z,19.55
2022-09-24T08:35:00.736Z,18.63
2022-09-24T08:37:28.218Z,17.77
2022-09-24T08:39:55.156Z,19.35
2022-09-24T08:42:38.964Z,20.17
2022-09-24T08:45:25.086Z,19.17
2022-09-24T08:48:04.806Z,19.00
2022-09-24T08:50:33.493Z,18.05
2022-09-24T08:53:18.404Z,17.88
2022-09-24T08:55:50.137Z,18.58
2022-09-24T08:58:26.508Z,17.20
2022-09-24T09:01:01.854Z,16.60
2022-09-24T09:03:54.058Z,17.52
2022-09-24T09:06:42.879Z,16.85
2022-09-24T09:09:15.518Z,16.67
2022-09-24T09:11:49.298Z,17.80
2022-09-24T09:14:42.977Z,16.73
2022-09-24T09:17:36.708Z,16.45
2022-09-24T09:20:07.669Z,16.17
2022-09-24T09:22:42.781Z,14.45
2022-09-24T09:25:19.051Z,14.90
2022-09-24T09:27:49.441Z,12.77
2022-09-24T09:30:18.069Z,10.68
2022-09-24T09:33:10.249Z,8.95
2022-09-24T09:35:55.716Z,14.05
2022-09-24T09:38:47.417Z,11.57
2022-09-24T09:41:28.254Z,9.90
2022-09-24T09:44:00.996Z,11.02
2022-09-24T09:46:33.241Z,10.43
2022-09-24T09:49:03.068Z,10.73
2022-09-24T09:51:34.776Z,10.95
2022-09-24T09:54:03.469Z,9.30
2022-09-24T09:56:38.573Z,8.30
2022-09-24T09:59:11.320Z,9.40
2022-09-24T10:01:41.411Z,8.90
2022-09-24T10:04:32.931Z,9.23
2022-09-24T10:07:17.733Z,10.50
2022-09-24T10:09:45.815Z,9.40
2022-09-24T10:12:16.823Z,9.63
2022-09-24T10:14:44.361Z,9.65
2022-09-24T10:17:16.378Z,7.93
2022-09-24T10:19:47.724Z,7.55
2022-09-24T10:22:23.065Z,7.60
2022-09-24T10:24:50.543Z,7.20
2022-09-24T10:27:31.011Z,7.68
2022-09-24T10:30:18.491Z,9.52
2022-09-24T10:32:45.945Z,7.55
2022-09-24T10:35:23.923Z,8.13
2022-09-24T10:37:52.854Z,8.07
2022-09-24T10:40:24.302Z,8.43
2022-09-24T10:43:02.073Z,8.00
2022-09-24T10:45:56.787Z,8.65
2022-09-24T10:48:27.830Z,8.52
2022-09-24T10:51:11.680Z,8.88
2022-09-24T10:54:01.403Z,8.32
2022-09-24T10:56:40.930Z,8.70
2022-09-24T10:59:28.134Z,8.40
2022-09-24T11:02:07.062Z,8.80
2022-09-24T11:04:42.656Z,8.50
2022-09-24T11:07:47.038Z,9.35
2022-09-24T11:10:42.619Z,8.40
2022-09-24T11:13:29.399Z,8.40
2022-09-24T11:16:13.702Z,7.63
2022-09-24T11:19:02.870Z,8.45
2022-09-24T11:21:57.765Z,8.52
2022-09-24T11:24:33.938Z,8.38
2022-09-24T11:27:25.316Z,8.70
2022-09-24T11:30:16.564Z,8.50
2022-09-24T11:33:07.800Z,8.82
2022-09-24T11:36:16.022Z,8.80
2022-09-24T11:38:49.397Z,8.35
2022-09-24T11:41:55.329Z,8.07
2022-09-24T11:44:54.631Z,8.70
2022-09-24T11:47:39.875Z,8.57
2022-09-24T11:50:24.426Z,8.20
2022-09-24T11:52:56.446Z,9.23
2022-09-24T11:55:51.630Z,9.25
2022-09-24T11:58:23.227Z,10.07
2022-09-24T12:00:57.589Z,8.70
2022-09-24T12:03:27.698Z,9.88
2022-09-24T12:06:00.872Z,9.55
2022-09-24T12:08:38.954Z,9.57
2022-09-24T12:11:36.137Z,9.85
2022-09-24T12:14:25.075Z,9.93
2022-09-24T12:16:57.197Z,9.07
2022-09-24T12:19:51.411Z,8.63
2022-09-24T12:22:20.170Z,9.10
2022-09-24T12:24:51.298Z,9.45
2022-09-24T12:27:22.872Z,8.60
2022-09-24T12:30:14.648Z,9.23
2022-09-24T12:33:04.564Z,8.05
2022-09-24T12:35:57.181Z,9.32
2022-09-24T12:38:31.750Z,9.38
2022-09-24T12:40:58.454Z,8.75
2022-09-24T12:43:33.478Z,8.65
2022-09-24T12:46:02.769Z,8.10
2022-09-24T12:48:31.912Z,8.75
2022-09-24T12:51:00.305Z,8.57
2022-09-24T12:53:34.230Z,9.07
2022-09-24T12:56:02.081Z,9.00
2022-09-24T12:58:38.237Z,9.13
2022-09-24T13:01:25.376Z,8.85
2022-09-24T13:04:13.953Z,9.40
2022-09-24T13:06:41.908Z,8.88
2022-09-24T13:09:25.984Z,8.90
2022-09-24T13:12:03.875Z,8.50
2022-09-24T13:14:32.897Z,8.90
2022-09-24T13:17:05.279Z,8.80
2022-09-24T13:19:41.103Z,9.13
2022-09-24T13:22:26.131Z,8.35
2022-09-24T13:25:25.577Z,9.32
2022-09-24T13:28:02.240Z,8.85
2022-09-24T13:30:40.556Z,8.93
2022-09-24T13:33:31.403Z,9.43
2022-09-24T13:35:58.441Z,9.07
2022-09-24T13:38:33.097Z,9.45
2022-09-24T13:41:36.325Z,10.75
2022-09-24T13:44:14.442Z,9.65
2022-09-24T13:46:44.020Z,9.30
2022-09-24T13:49:16.360Z,10.20
2022-09-24T13:51:46.195Z,10.30
2022-09-24T13:54:25.074Z,9.15
2022-09-24T13:57:22.371Z,9.63
2022-09-24T13:59:49.216Z,9.45
2022-09-24T14:02:26.915Z,10.93
2022-09-24T14:04:59.238Z,10.43
2022-09-24T14:07:27.154Z,10.38
2022-09-24T14:10:05.891Z,10.52
2022-09-24T14:12:33.402Z,10.93
2022-09-24T14:15:00.248Z,12.40
2022-09-24T14:17:27.018Z,12.10
2022-09-24T14:19:56.237Z,11.38
2022-09-24T14:22:22.992Z,11.82
2022-09-24T14:25:07.693Z,12.95
2022-09-24T14:27:40.053Z,12.35
2022-09-24T14:30:08.640Z,12.57
2022-09-24T14:32:37.911Z,11.55
2022-09-24T14:35:11.334Z,13.13
2022-09-24T14:37:39.848Z,13.02
2022-09-24T14:40:12.769Z,14.00
2022-09-24T14:42:46.539Z,14.32
2022-09-24T14:45:37.870Z,14.25
2022-09-24T14:48:26.529Z,14.70
2022-09-24T14:50:53.435Z,14.23
2022-09-24T14:53:36.180Z,14.63
2022-09-24T14:56:20.395Z,15.60
2022-09-24T14:58:47.407Z,16.67
2022-09-24T15:01:17.329Z,16.58
2022-09-24T15:03:57.000Z,18.23
2022-09-24T15:06:26.618Z,17.42
2022-09-24T15:09:05.403Z,17.23
2022-09-24T15:11:35.047Z,18.17
2022-09-24T15:14:15.699Z,17.88
2022-09-24T15:16:43.702Z,17.13
2022-09-24T15:19:20.693Z,18.77
2022-09-24T15:21:52.595Z,17.27
2022-09-24T15:24:20.439Z,16.85
2022-09-24T15:26:50.580Z,18.13
2022-09-24T15:29:24.152Z,17.95
2022-09-24T15:31:52.139Z,18.33
2022-09-24T15:34:20.450Z,18.42
2022-09-24T15:36:48.666Z,17.60
2022-09-24T15:39:16.327Z,16.80
2022-09-24T15:41:43.076Z,18.02
2022-09-24T15:44:19.056Z,16.98
2022-09-24T15:46:48.125Z,16.88
2022-09-24T15:49:16.329Z,17.58
2022-09-24T15:51:43.197Z,17.30
2022-09-24T15:54:10.042Z,16.42
2022-09-24T15:56:38.348Z,17.08
2022-09-24T15:59:14.608Z,17.23
2022-09-24T16:01:42.505Z,16.38
2022-09-24T16:04:11.842Z,17.70
2022-09-24T16:06:38.893Z,17.88
2022-09-24T16:09:05.707Z,19.10
2022-09-24T16:11:32.644Z,18.60
2022-09-24T16:13:59.483Z,17.35
2022-09-24T16:16:26.436Z,18.30
2022-09-24T16:18:53.936Z,17.23
2022-09-24T16:21:21.122Z,16.20
2022-09-24T16:23:54.032Z,16.65
2022-09-24T16:26:20.784Z,18.38
2022-09-24T16:28:49.413Z,18.23
2022-09-24T16:31:16.260Z,17.30
2022-09-24T16:33:43.044Z,17.10
2022-09-24T16:36:10.193Z,16.73
2022-09-24T16:38:38.159Z,17.88
2022-09-24T16:41:06.426Z,17.50
2022-09-24T16:43:33.450Z,17.60
2022-09-24T16:46:03.621Z,16.02
2022-09-24T16:48:31.509Z,16.85
2022-09-24T16:51:05.992Z,16.52
2022-09-24T16:53:34.761Z,16.85
2022-09-24T16:56:10.865Z,16.70
2022-09-24T16:58:37.681Z,16.65
2022-09-24T17:01:09.242Z,19.10
2022-09-24T17:03:36.424Z,19.10
2022-09-24T17:06:04.316Z,20.20
2022-09-24T17:08:51.012Z,20.05
2022-09-24T17:11:18.135Z,21.98
2022-09-24T17:13:47.568Z,22.08
2022-09-24T17:16:15.249Z,25.40
2022-09-24T17:18:42.123Z,25.00
2022-09-24T17:21:12.469Z,26.65
2022-09-24T17:23:39.946Z,27.38
2022-09-24T17:26:09.277Z,27.23
2022-09-24T17:28:37.290Z,27.40
2022-09-24T17:31:04.931Z,27.60
2022-09-24T17:33:43.360Z,28.40
2022-09-24T17:36:12.453Z,29.35
2022-09-24T17:38:39.163Z,27.48
2022-09-24T17:41:08.203Z,28.15
2022-09-24T17:43:35.527Z,28.85
2022-09-24T17:46:12.921Z,30.83
2022-09-24T17:48:44.373Z,30.05
2022-09-24T17:51:14.668Z,30.63
2022-09-24T17:53:41.256Z,29.67
2022-09-24T17:56:10.000Z,29.13
2022-09-24T17:58:40.863Z,31.08
2022-09-24T18:01:12.492Z,31.05
2022-09-24T18:03:39.991Z,32.80
2022-09-24T18:06:09.705Z,32.42
2022-09-24T18:08:40.887Z,33.03
2022-09-24T18:11:10.467Z,34.05
2022-09-24T18:13:37.699Z,33.28
2022-09-24T18:16:07.034Z,32.53
2022-09-24T18:18:34.769Z,32.95
2022-09-24T18:21:06.673Z,33.03
2022-09-24T18:23:35.101Z,33.97
2022-09-24T18:26:18.877Z,33.17
2022-09-24T18:28:57.846Z,32.10
2022-09-24T18:31:28.187Z,31.92
2022-09-24T18:33:56.732Z,33.87
2022-09-24T18:36:25.540Z,33.30
2022-09-24T18:38:53.433Z,33.80
2022-09-24T18:41:25.446Z,34.90
2022-09-24T18:43:53.349Z,34.42
2022-09-24T18:46:22.014Z,34.58
2022-09-24T18:48:51.014Z,34.10
2022-09-24T18:51:20.459Z,36.72
2022-09-24T18:53:58.541Z,35.50
2022-09-24T18:56:26.193Z,35.97
2022-09-24T18:59:04.871Z,38.92
2022-09-24T19:01:35.662Z,36.78
2022-09-24T19:04:03.234Z,38.08
2022-09-24T19:06:31.550Z,40.63
2022-09-24T19:08:58.365Z,38.88
2022-09-24T19:11:25.186Z,39.42
2022-09-24T19:13:53.887Z,38.63
2022-09-24T19:16:25.290Z,38.13
2022-09-24T19:18:55.481Z,37.75
2022-09-24T19:21:24.535Z,38.83
2022-09-24T19:23:53.329Z,36.55
2022-09-24T19:26:22.468Z,35.92
2022-09-24T19:28:53.006Z,36.00
2022-09-24T19:31:22.976Z,37.53
2022-09-24T19:33:51.641Z,36.75
2022-09-24T19:36:18.988Z,34.33
2022-09-24T19:38:45.952Z,35.75
2022-09-24T19:41:19.469Z,36.10
2022-09-24T19:43:46.586Z,37.90
2022-09-24T19:46:15.739Z,37.05
2022-09-24T19:48:44.641Z,34.75
2022-09-24T19:51:19.803Z,36.63
2022-09-24T19:53:54.343Z,32.35
2022-09-24T19:56:24.674Z,31.85
2022-09-24T19:58:56.722Z,29.75
2022-09-24T20:01:28.042Z,29.10
2022-09-24T20:03:55.814Z,26.60
2022-09-24T20:06:24.877Z,24.70
2022-09-24T20:08:52.032Z,23.48
2022-09-24T20:11:21.201Z,22.80
2022-09-24T20:13:49.070Z,22.00
2022-09-24T20:16:19.142Z,19.92
2022-09-24T20:18:47.475Z,19.50
2022-09-24T20:21:16.297Z,20.15
2022-09-24T20:23:43.135Z,19.63
2022-09-24T20:26:29.632Z,19.52
2022-09-24T20:28:56.992Z,20.08
2022-09-24T20:31:24.309Z,17.52
2022-09-24T20:33:52.365Z,19.35
2022-09-24T20:36:23.398Z,18.38
2022-09-24T20:38:51.084Z,18.40
2022-09-24T20:41:20.753Z,18.42
2022-09-24T20:43:47.603Z,18.60
2022-09-24T20:46:21.767Z,17.30
2022-09-24T20:48:48.768Z,17.70
2022-09-24T20:51:18.333Z,18.42
2022-09-24T20:53:46.099Z,18.15
2022-09-24T20:56:12.985Z,18.85
2022-09-24T20:58:41.529Z,18.70
2022-09-24T21:01:09.183Z,18.60
2022-09-24T21:03:44.539Z,18.35
2022-09-24T21:06:12.505Z,18.40
2022-09-24T21:08:43.834Z,19.23
2022-09-24T21:13:50.118Z,17.73
2022-09-24T21:16:20.827Z,18.52
2022-09-24T21:18:49.068Z,19.02
2022-09-24T21:21:31.615Z,18.42
2022-09-24T21:24:00.867Z,18.50
2022-09-24T21:26:35.401Z,19.20
2022-09-24T21:29:09.111Z,18.42
2022-09-24T21:31:37.432Z,19.50
2022-09-24T21:34:05.568Z,19.83
2022-09-24T21:36:41.224Z,19.55
2022-09-24T21:39:16.597Z,19.65
2022-09-24T21:41:44.676Z,21.50
2022-09-24T21:44:14.191Z,21.10
2022-09-24T21:46:42.993Z,21.70
2022-09-24T21:49:11.074Z,21.08
2022-09-24T21:51:38.578Z,21.40
2022-09-24T21:54:07.561Z,21.83
2022-09-24T21:56:35.313Z,23.77
2022-09-24T21:59:22.314Z,23.33
2022-09-24T22:01:49.115Z,23.77
2022-09-24T22:04:15.998Z,23.75
2022-09-24T22:06:42.769Z,25.52
2022-09-24T22:09:10.311Z,28.38
2022-09-24T22:11:38.255Z,28.73
2022-09-24T22:14:05.142Z,27.95
2022-09-24T22:16:34.668Z,28.80
2022-09-24T22:19:03.665Z,27.67
2022-09-24T22:21:31.474Z,29.05
2022-09-24T22:23:58.686Z,27.88
2022-09-24T22:26:29.782Z,27.90
2022-09-24T22:28:56.879Z,24.33
2022-09-24T22:31:23.593Z,22.40
2022-09-24T22:34:09.326Z,22.73
2022-09-24T22:36:36.223Z,20.38
2022-09-24T22:39:04.568Z,19.90
2022-09-24T22:41:32.712Z,20.20
2022-09-24T22:43:59.570Z,18.08
2022-09-24T22:46:27.565Z,17.88
2022-09-24T22:48:55.226Z,18.00
2022-09-24T22:51:23.004Z,16.10
2022-09-24T22:53:49.896Z,15.80
2022-09-24T22:56:19.038Z,15.48
2022-09-24T22:58:50.830Z,16.17
2022-09-24T23:01:23.842Z,13.90
2022-09-24T23:03:52.069Z,13.80
2022-09-24T23:06:20.902Z,14.35
2022-09-24T23:08:48.525Z,13.85
2022-09-24T23:11:19.493Z,14.45
2022-09-24T23:13:47.727Z,13.10
2022-09-24T23:16:17.592Z,12.30
2022-09-24T23:18:46.668Z,12.90
2022-09-24T23:21:16.477Z,13.05
2022-09-24T23:23:44.176Z,12.35
2022-09-24T23:26:16.531Z,12.77
2022-09-24T23:28:45.070Z,11.88
2022-09-24T23:31:14.369Z,12.15
2022-09-24T23:33:42.257Z,12.00
2022-09-24T23:36:10.795Z,11.32
2022-09-24T23:38:37.369Z,12.05
2022-09-24T23:41:05.333Z,11.70
2022-09-24T23:43:32.633Z,10.90
2022-09-24T23:45:59.386Z,10.23
2022-09-24T23:48:26.514Z,9.57
2022-09-24T23:50:53.105Z,10.07
2022-09-24T23:53:21.659Z,9.45
2022-09-24T23:55:49.287Z,10.70
2022-09-24T23:58:18.249Z,10.73
